Time;durP1;ratioP1;P1;durP2;ratioP2;P2;SDS_P1;SDS_P2;PMS_P1;PMS_P2;Temp;Humidity;BMP_temperature;BMP_pressure;BME280_temperature;BME280_humidity;BME280_pressure;Samples;Min_cycle;Max_cycle;Signal;HPM_P1;HPM_P2
2024/04/02 00:01:13;;;;;;;0.65;0.40;;;15.60;83.40;;;;;;4995291;28;20061;-78
2024/04/02 00:03:42;;;;;;;0.15;0.10;;;15.60;83.20;;;;;;5004384;28;20122;-78
2024/04/02 00:06:07;;;;;;;0.10;0.10;;;15.60;83.40;;;;;;5002737;28;20038;-78
2024/04/02 00:08:34;;;;;;;0.30;0.10;;;15.60;83.00;;;;;;4987379;28;20535;-78
2024/04/02 00:11:01;;;;;;;0.22;0.10;;;15.50;83.00;;;;;;4993534;28;20046;-77
2024/04/02 00:13:27;;;;;;;0.63;0.38;;;15.50;83.20;;;;;;5004635;28;20124;-78
2024/04/02 00:15:52;;;;;;;0.30;0.20;;;15.60;82.90;;;;;;5008258;28;20079;-78
2024/04/02 00:18:18;;;;;;;0.35;0.20;;;15.60;83.20;;;;;;5001852;28;20131;-78
2024/04/02 00:20:44;;;;;;;0.30;0.25;;;15.60;83.30;;;;;;5017438;28;20058;-78
2024/04/02 00:23:09;;;;;;;0.40;0.20;;;15.50;83.30;;;;;;5005220;28;20053;-79
2024/04/02 00:25:35;;;;;;;0.47;0.10;;;15.50;83.30;;;;;;5005303;28;20057;-78
2024/04/02 00:28:01;;;;;;;0.32;0.20;;;15.60;83.80;;;;;;5002508;28;20095;-78
2024/04/02 00:30:27;;;;;;;0.22;0.13;;;15.60;83.40;;;;;;5013755;28;20057;-78
2024/04/02 00:32:54;;;;;;;0.40;0.15;;;15.50;83.60;;;;;;5007017;28;20038;-78
2024/04/02 00:35:22;;;;;;;0.30;0.20;;;15.50;83.70;;;;;;5001055;28;20137;-78
2024/04/02 00:37:48;;;;;;;0.20;0.20;;;15.50;83.60;;;;;;4989103;28;20095;-78
2024/04/02 00:40:14;;;;;;;0.10;0.10;;;15.50;83.60;;;;;;5002563;28;20137;-78
2024/04/02 00:42:40;;;;;;;0.20;0.20;;;15.50;83.20;;;;;;5011529;28;20042;-78
2024/04/02 00:45:05;;;;;;;0.28;0.20;;;15.50;83.40;;;;;;5005013;28;20076;-78
2024/04/02 00:47:32;;;;;;;0.30;0.20;;;15.50;83.50;;;;;;5003758;28;20404;-78
2024/04/02 00:49:59;;;;;;;0.10;0.10;;;15.50;83.50;;;;;;4987738;28;20504;-78
2024/04/02 00:52:24;;;;;;;0.10;0.10;;;15.50;83.40;;;;;;5002963;28;20466;-79
2024/04/02 00:54:50;;;;;;;0.88;0.32;;;15.50;83.60;;;;;;5008645;28;20582;-78
2024/04/02 00:57:15;;;;;;;0.40;0.25;;;15.50;83.60;;;;;;5014939;28;20041;-79
2024/04/02 00:59:41;;;;;;;0.43;0.30;;;15.50;83.30;;;;;;5004310;28;20092;-79
2024/04/02 01:02:09;;;;;;;0.30;0.30;;;15.50;83.60;;;;;;5011496;28;20038;-79
2024/04/02 01:04:35;;;;;;;0.40;0.30;;;15.50;83.50;;;;;;5003944;28;20049;-79
2024/04/02 01:07:02;;;;;;;0.45;0.15;;;15.50;83.20;;;;;;5003694;28;20045;-79
2024/04/02 01:09:27;;;;;;;0.38;0.20;;;15.50;83.40;;;;;;5014374;28;20054;-79
2024/04/02 01:11:53;;;;;;;0.30;0.20;;;15.50;83.60;;;;;;4984451;28;20099;-78
2024/04/02 01:14:18;;;;;;;0.43;0.20;;;15.50;83.80;;;;;;4987676;28;20511;-77
2024/04/02 01:16:45;;;;;;;0.20;0.20;;;15.50;83.70;;;;;;4983297;28;20042;-77
2024/04/02 01:19:10;;;;;;;0.25;0.20;;;15.40;83.80;;;;;;5032294;28;20111;-77
2024/04/02 01:21:36;;;;;;;0.20;0.20;;;15.50;83.90;;;;;;4988533;28;20512;-77
2024/04/02 01:24:02;;;;;;;0.60;0.30;;;15.40;83.50;;;;;;4988267;28;20049;-77
2024/04/02 01:26:28;;;;;;;0.20;0.20;;;15.40;83.20;;;;;;4993460;28;20045;-77
2024/04/02 01:28:56;;;;;;;0.63;0.20;;;15.40;83.50;;;;;;5006695;28;20045;-77
2024/04/02 01:31:21;;;;;;;0.20;0.10;;;15.40;83.30;;;;;;5017998;28;20045;-77
2024/04/02 01:33:47;;;;;;;0.32;0.22;;;15.40;83.50;;;;;;5034303;28;20042;-77
2024/04/02 01:36:13;;;;;;;0.30;0.20;;;15.40;83.40;;;;;;5006335;28;20042;-77
2024/04/02 01:38:39;;;;;;;0.82;0.30;;;15.40;83.30;;;;;;5013754;28;20132;-77
2024/04/02 01:41:04;;;;;;;0.32;0.20;;;15.50;83.60;;;;;;5035062;28;20042;-78
2024/04/02 01:43:30;;;;;;;0.90;0.17;;;15.40;83.80;;;;;;5002428;28;20048;-78
2024/04/02 01:45:55;;;;;;;0.20;0.10;;;15.40;84.00;;;;;;5017006;28;20030;-78
2024/04/02 01:48:21;;;;;;;0.43;0.30;;;15.40;83.70;;;;;;5006982;28;20529;-78
2024/04/02 01:50:46;;;;;;;0.55;0.20;;;15.40;83.60;;;;;;5004370;28;20045;-79
2024/04/02 01:53:12;;;;;;;0.35;0.30;;;15.40;83.50;;;;;;5006441;28;20510;-79
2024/04/02 01:55:38;;;;;;;0.43;0.20;;;15.40;83.40;;;;;;5004329;28;20046;-78
2024/04/02 01:58:03;;;;;;;0.17;0.10;;;15.40;83.30;;;;;;5004022;28;20180;-78
2024/04/02 02:00:29;;;;;;;0.30;0.20;;;15.40;83.20;;;;;;4997598;28;20715;-78
2024/04/02 02:02:54;;;;;;;0.30;0.20;;;15.40;82.90;;;;;;5004421;28;20069;-79
2024/04/02 02:05:20;;;;;;;0.22;0.20;;;15.40;83.20;;;;;;5005131;28;20057;-79
2024/04/02 02:07:46;;;;;;;0.13;0.10;;;15.40;83.10;;;;;;5005449;28;20050;-78
2024/04/02 02:10:13;;;;;;;0.32;0.17;;;15.40;83.70;;;;;;5002408;28;20078;-77
2024/04/02 02:12:39;;;;;;;0.28;0.20;;;15.40;83.40;;;;;;5008994;28;20042;-77
2024/04/02 02:15:05;;;;;;;0.13;0.10;;;15.40;83.60;;;;;;5005451;28;20103;-78
2024/04/02 02:17:31;;;;;;;0.47;0.20;;;15.40;83.80;;;;;;5005204;28;20085;-78
2024/04/02 02:19:56;;;;;;;0.30;0.20;;;15.40;82.60;;;;;;5005800;28;20065;-78
2024/04/02 02:22:22;;;;;;;1.15;0.20;;;15.40;83.40;;;;;;5006051;28;20717;-79
2024/04/02 02:24:47;;;;;;;0.17;0.10;;;15.40;83.10;;;;;;5020742;28;20057;-79
2024/04/02 02:27:13;;;;;;;0.50;0.30;;;15.40;82.90;;;;;;5013625;28;20034;-78
2024/04/02 02:29:39;;;;;;;0.22;0.20;;;15.40;83.40;;;;;;5017223;28;20037;-79
2024/04/02 02:32:04;;;;;;;0.50;0.28;;;15.40;83.50;;;;;;4988375;28;20046;-78
2024/04/02 02:34:30;;;;;;;0.20;0.10;;;15.40;83.70;;;;;;5006422;28;20042;-79
2024/04/02 02:36:55;;;;;;;0.40;0.20;;;15.40;83.40;;;;;;4990922;28;20512;-79
2024/04/02 02:39:22;;;;;;;0.40;0.20;;;15.40;83.20;;;;;;5007867;28;20107;-79
2024/04/02 02:41:47;;;;;;;0.28;0.17;;;15.40;83.30;;;;;;5003060;28;20069;-79
2024/04/02 02:44:13;;;;;;;0.52;0.40;;;15.40;83.50;;;;;;5003556;28;20129;-79
2024/04/02 02:46:38;;;;;;;0.28;0.20;;;15.40;83.40;;;;;;5008844;28;20089;-79
2024/04/02 02:49:04;;;;;;;0.70;0.40;;;15.40;83.70;;;;;;5013380;28;20092;-78
2024/04/02 02:51:30;;;;;;;0.47;0.40;;;15.40;83.40;;;;;;5036163;28;20050;-77
2024/04/02 02:53:55;;;;;;;0.50;0.35;;;15.40;82.90;;;;;;5007873;28;20045;-75
2024/04/02 02:56:22;;;;;;;0.35;0.20;;;15.40;83.30;;;;;;5004789;28;20038;-76
2024/04/02 02:58:53;;;;;;;0.40;0.30;;;15.40;83.00;;;;;;5018507;28;20129;-76
2024/04/02 03:01:18;;;;;;;0.40;0.22;;;15.40;83.00;;;;;;5006712;28;20065;-75
2024/04/02 03:03:47;;;;;;;0.43;0.20;;;15.40;83.30;;;;;;5037142;28;20057;-75
2024/04/02 03:06:13;;;;;;;0.30;0.10;;;15.40;83.30;;;;;;5033570;28;20041;-76
2024/04/02 03:08:39;;;;;;;0.50;0.20;;;15.40;83.30;;;;;;5004296;28;20153;-76
2024/04/02 03:11:05;;;;;;;0.32;0.20;;;15.40;83.40;;;;;;5005164;28;20049;-76
2024/04/02 03:13:32;;;;;;;0.17;0.10;;;15.40;83.40;;;;;;5005305;28;20057;-77
2024/04/02 03:15:57;;;;;;;0.85;0.30;;;15.40;83.40;;;;;;5005232;28;20049;-77
2024/04/02 03:18:23;;;;;;;0.50;0.30;;;15.40;83.00;;;;;;5005426;28;20565;-77
2024/04/02 03:20:49;;;;;;;0.30;0.30;;;15.40;82.80;;;;;;4991094;28;20052;-77
2024/04/02 03:23:16;;;;;;;0.30;0.13;;;15.40;83.00;;;;;;5002464;28;20176;-76
2024/04/02 03:25:42;;;;;;;0.20;0.17;;;15.30;83.00;;;;;;4988953;28;20531;-77
2024/04/02 03:28:08;;;;;;;0.40;0.28;;;15.30;82.90;;;;;;5003658;28;20058;-76
2024/04/02 03:30:33;;;;;;;1.42;0.20;;;15.30;83.40;;;;;;4984762;28;20046;-77
2024/04/02 03:32:59;;;;;;;0.82;0.20;;;15.30;83.40;;;;;;5014350;28;20046;-76
2024/04/02 03:35:24;;;;;;;0.40;0.20;;;15.30;83.30;;;;;;5002814;28;20039;-77
2024/04/02 03:37:50;;;;;;;0.60;0.32;;;15.30;83.30;;;;;;4985068;28;20508;-77
2024/04/02 03:40:16;;;;;;;0.20;0.20;;;15.30;83.10;;;;;;5004271;28;20103;-77
2024/04/02 03:42:41;;;;;;;0.80;0.20;;;15.30;83.30;;;;;;5005757;28;20390;-77
2024/04/02 03:45:08;;;;;;;0.47;0.30;;;15.30;83.20;;;;;;4987090;28;20042;-75
2024/04/02 03:47:33;;;;;;;0.35;0.30;;;15.30;83.10;;;;;;4986026;28;22913;-76
2024/04/02 03:49:59;;;;;;;0.30;0.20;;;15.30;83.30;;;;;;4988747;28;20561;-76
2024/04/02 03:52:24;;;;;;;0.50;0.40;;;15.30;83.60;;;;;;5004785;28;20057;-75
2024/04/02 03:54:50;;;;;;;0.50;0.30;;;15.40;83.20;;;;;;5006785;28;20032;-76
2024/04/02 03:57:15;;;;;;;0.40;0.30;;;15.30;83.20;;;;;;5003305;28;20053;-76
2024/04/02 03:59:41;;;;;;;0.70;0.30;;;15.30;82.70;;;;;;5005247;28;20125;-76
2024/04/02 04:02:07;;;;;;;0.70;0.43;;;15.30;83.20;;;;;;5005917;28;20038;-76
2024/04/02 04:04:32;;;;;;;0.17;0.13;;;15.30;82.90;;;;;;4984375;28;20046;-76
2024/04/02 04:06:58;;;;;;;0.52;0.40;;;15.30;82.70;;;;;;5002515;28;20111;-77
2024/04/02 04:09:24;;;;;;;0.20;0.15;;;15.30;82.90;;;;;;5002341;28;20046;-76
2024/04/02 04:11:50;;;;;;;0.50;0.30;;;15.30;83.00;;;;;;5004582;28;20045;-77
2024/04/02 04:14:16;;;;;;;0.43;0.20;;;15.30;82.70;;;;;;5002721;28;20519;-76
2024/04/02 04:16:41;;;;;;;0.20;0.20;;;15.30;82.90;;;;;;5005396;28;20049;-76
2024/04/02 04:19:07;;;;;;;0.10;0.10;;;15.30;82.80;;;;;;5004017;28;20042;-76
2024/04/02 04:21:33;;;;;;;0.30;0.20;;;15.30;82.80;;;;;;5007708;28;21487;-76
2024/04/02 04:23:58;;;;;;;1.33;0.25;;;15.30;82.60;;;;;;5003865;28;20046;-77
2024/04/02 04:26:24;;;;;;;1.15;0.38;;;15.30;82.60;;;;;;4973415;28;20030;-76
2024/04/02 04:28:49;;;;;;;0.50;0.50;;;15.30;82.90;;;;;;5000459;28;20061;-76
2024/04/02 04:31:15;;;;;;;0.82;0.40;;;15.30;82.70;;;;;;5002572;28;20446;-76
2024/04/02 04:33:41;;;;;;;0.35;0.20;;;15.30;83.20;;;;;;5015382;28;20048;-76
2024/04/02 04:36:06;;;;;;;0.30;0.20;;;15.30;83.00;;;;;;4984127;28;20060;-76
2024/04/02 04:38:32;;;;;;;0.40;0.35;;;15.30;82.20;;;;;;4987136;28;20053;-76
2024/04/02 04:40:58;;;;;;;0.50;0.20;;;15.30;82.60;;;;;;4973371;28;20046;-76
2024/04/02 04:43:23;;;;;;;0.60;0.40;;;15.30;83.10;;;;;;4988796;28;20412;-76
2024/04/02 04:45:52;;;;;;;0.68;0.28;;;15.30;82.90;;;;;;5030424;28;20046;-76
2024/04/02 04:48:18;;;;;;;0.47;0.20;;;15.30;82.80;;;;;;4990770;28;20510;-76
2024/04/02 04:51:03;;;;;;;0.40;0.25;;;15.30;83.20;;;;;;5006308;28;20046;-76
2024/04/02 04:53:29;;;;;;;2.05;0.52;;;15.30;83.20;;;;;;5019943;28;20046;-77
2024/04/02 04:55:59;;;;;;;0.40;0.20;;;15.30;83.40;;;;;;5003081;28;20514;-77
2024/04/02 04:58:24;;;;;;;0.30;0.28;;;15.30;83.30;;;;;;5036450;28;20038;-76
2024/04/02 05:00:50;;;;;;;0.73;0.30;;;15.30;83.20;;;;;;5008298;28;20112;-76
2024/04/02 05:03:16;;;;;;;0.28;0.20;;;15.30;83.50;;;;;;5017058;28;20049;-76
2024/04/02 05:05:41;;;;;;;0.30;0.17;;;15.30;83.20;;;;;;5009312;28;20507;-76
2024/04/02 05:08:25;;;;;;;0.40;0.30;;;15.30;83.20;;;;;;5004892;28;20042;-76
2024/04/02 05:10:51;;;;;;;0.93;0.40;;;15.30;83.20;;;;;;4988778;28;20099;-76
2024/04/02 05:13:17;;;;;;;0.38;0.20;;;15.30;83.40;;;;;;5035339;28;20049;-76
2024/04/02 05:15:43;;;;;;;0.57;0.20;;;15.30;83.10;;;;;;5005427;28;20555;-75
2024/04/02 05:18:08;;;;;;;0.60;0.30;;;15.30;83.40;;;;;;5017224;28;20419;-76
2024/04/02 05:20:34;;;;;;;0.28;0.20;;;15.30;83.60;;;;;;5021798;28;20037;-76
2024/04/02 05:23:00;;;;;;;0.60;0.40;;;15.30;83.10;;;;;;5011720;28;20062;-76
2024/04/02 05:25:25;;;;;;;1.15;0.40;;;15.30;83.30;;;;;;5009010;28;20041;-76
2024/04/02 05:27:51;;;;;;;0.70;0.30;;;15.30;83.10;;;;;;4990898;28;20042;-77
2024/04/02 05:30:17;;;;;;;0.40;0.30;;;15.30;83.60;;;;;;5005486;28;20046;-77
2024/04/02 05:32:42;;;;;;;0.80;0.30;;;15.30;83.30;;;;;;5016080;28;20049;-76
2024/04/02 05:35:08;;;;;;;0.85;0.40;;;15.30;83.60;;;;;;4990252;28;20503;-77
2024/04/02 05:37:36;;;;;;;0.68;0.40;;;15.30;83.60;;;;;;4990155;28;20041;-76
2024/04/02 05:40:07;;;;;;;0.73;0.40;;;15.30;83.50;;;;;;5005726;28;20046;-77
2024/04/02 05:42:32;;;;;;;2.65;0.65;;;15.30;83.80;;;;;;5030142;28;20039;-76
2024/04/02 05:44:58;;;;;;;0.40;0.30;;;15.30;83.70;;;;;;5006758;28;20615;-77
2024/04/02 05:47:24;;;;;;;0.40;0.40;;;15.30;83.80;;;;;;5004781;28;20049;-76
2024/04/02 05:49:49;;;;;;;0.43;0.20;;;15.30;83.90;;;;;;5031331;28;20049;-76
2024/04/02 05:52:16;;;;;;;1.02;0.40;;;15.40;84.40;;;;;;4991715;28;20499;-76
2024/04/02 05:54:42;;;;;;;2.80;0.50;;;15.30;83.70;;;;;;4987499;28;20053;-78
2024/04/02 05:57:08;;;;;;;1.08;0.30;;;15.30;83.60;;;;;;5005109;28;20030;-78
2024/04/02 05:59:33;;;;;;;0.50;0.30;;;15.40;83.70;;;;;;5006776;28;20440;-78
2024/04/02 06:01:59;;;;;;;0.40;0.38;;;15.40;83.60;;;;;;4971285;28;20038;-77
2024/04/02 06:04:25;;;;;;;1.15;0.40;;;15.40;84.00;;;;;;5002127;28;20031;-77
2024/04/02 06:06:50;;;;;;;0.73;0.30;;;15.40;83.80;;;;;;5005000;28;20041;-79
2024/04/02 06:09:18;;;;;;;0.65;0.55;;;15.30;84.20;;;;;;5008858;28;20188;-79
2024/04/02 06:11:44;;;;;;;0.95;0.57;;;15.30;84.00;;;;;;4984253;28;20038;-78
2024/04/02 06:14:10;;;;;;;0.30;0.30;;;15.30;83.60;;;;;;5007452;28;20045;-78
2024/04/02 06:16:35;;;;;;;0.40;0.30;;;15.40;83.80;;;;;;4995535;28;20034;-78
2024/04/02 06:19:01;;;;;;;0.70;0.45;;;15.40;83.80;;;;;;5020142;28;20142;-78
2024/04/02 06:21:27;;;;;;;0.68;0.65;;;15.40;84.40;;;;;;5014371;28;20069;-77
2024/04/02 06:23:52;;;;;;;0.70;0.45;;;15.50;83.20;;;;;;5003067;28;20054;-79
2024/04/02 06:26:18;;;;;;;1.50;0.50;;;15.50;83.70;;;;;;5006205;28;20073;-79
2024/04/02 06:28:44;;;;;;;0.70;0.45;;;15.50;83.20;;;;;;5018997;28;20054;-80
2024/04/02 06:31:09;;;;;;;0.55;0.32;;;15.40;83.70;;;;;;5013976;28;20038;-79
2024/04/02 06:33:35;;;;;;;0.95;0.35;;;15.40;83.60;;;;;;5001849;28;20041;-79
2024/04/02 06:36:01;;;;;;;0.50;0.40;;;15.40;83.90;;;;;;5033585;28;20067;-79
2024/04/02 06:38:26;;;;;;;0.50;0.47;;;15.50;84.00;;;;;;5001924;28;20041;-79
2024/04/02 06:40:52;;;;;;;0.57;0.50;;;15.40;83.70;;;;;;4972065;28;20419;-79
2024/04/02 06:43:18;;;;;;;1.85;0.80;;;15.40;83.70;;;;;;5005866;28;20049;-79
2024/04/02 06:45:53;;;;;;;0.95;0.50;;;15.40;83.30;;;;;;5001066;28;20130;-77
2024/04/02 06:48:19;;;;;;;0.63;0.25;;;15.40;83.80;;;;;;5018216;28;20051;-78
2024/04/02 06:50:44;;;;;;;1.38;0.32;;;15.40;83.90;;;;;;5004423;28;20042;-78
2024/04/02 06:53:10;;;;;;;0.55;0.30;;;15.40;83.80;;;;;;4989738;28;20046;-78
2024/04/02 06:55:35;;;;;;;0.93;0.32;;;15.40;83.80;;;;;;5005590;28;20046;-78
2024/04/02 06:58:01;;;;;;;0.70;0.60;;;15.40;84.20;;;;;;5016485;28;20053;-78
2024/04/02 07:00:26;;;;;;;0.50;0.40;;;15.40;84.20;;;;;;5020456;28;20038;-78
2024/04/02 07:02:53;;;;;;;1.17;0.43;;;15.40;84.10;;;;;;5001075;28;20045;-78
2024/04/02 07:05:18;;;;;;;0.98;0.40;;;15.40;84.10;;;;;;4999981;28;20033;-78
2024/04/02 07:07:44;;;;;;;3.35;0.50;;;15.40;84.10;;;;;;5005158;28;20050;-78
2024/04/02 07:10:09;;;;;;;1.30;0.40;;;15.40;83.80;;;;;;4989948;28;20514;-78
2024/04/02 07:12:35;;;;;;;1.65;0.40;;;15.40;83.80;;;;;;4998868;28;20064;-77
2024/04/02 07:15:01;;;;;;;1.85;0.50;;;15.40;84.00;;;;;;5000065;28;20038;-78
2024/04/02 07:17:26;;;;;;;1.10;0.40;;;15.40;84.00;;;;;;5006534;28;20042;-78
2024/04/02 07:19:52;;;;;;;0.60;0.40;;;15.40;83.70;;;;;;4973772;28;20034;-78
2024/04/02 07:22:18;;;;;;;0.90;0.32;;;15.40;83.80;;;;;;5003822;28;20061;-78
2024/04/02 07:24:43;;;;;;;1.23;0.40;;;15.30;83.80;;;;;;4984833;28;20183;-77
2024/04/02 07:27:09;;;;;;;0.85;0.50;;;15.40;83.70;;;;;;5004441;28;20492;-78
2024/04/02 07:29:35;;;;;;;2.03;0.30;;;15.40;83.80;;;;;;4988466;28;20045;-78
2024/04/02 07:32:00;;;;;;;0.73;0.40;;;15.40;84.10;;;;;;4988088;28;20057;-78
2024/04/02 07:34:26;;;;;;;0.90;0.50;;;15.40;84.10;;;;;;4970214;28;20465;-78
2024/04/02 07:36:51;;;;;;;3.90;0.68;;;15.40;83.90;;;;;;5032555;28;20050;-78
2024/04/02 07:39:17;;;;;;;1.17;0.52;;;15.40;83.80;;;;;;5004439;28;20049;-78
2024/04/02 07:41:43;;;;;;;0.45;0.30;;;15.40;83.30;;;;;;5002819;28;20059;-78
2024/04/02 07:44:08;;;;;;;0.65;0.30;;;15.40;83.80;;;;;;4986230;28;20041;-78
2024/04/02 07:46:34;;;;;;;0.55;0.40;;;15.40;83.80;;;;;;4972680;28;20038;-78
2024/04/02 07:49:00;;;;;;;1.25;0.25;;;15.40;84.80;;;;;;4989800;28;20046;-78
2024/04/02 07:51:27;;;;;;;0.30;0.20;;;15.40;84.10;;;;;;5014560;28;20104;-78
2024/04/02 07:53:53;;;;;;;2.53;0.50;;;15.40;84.10;;;;;;4973071;28;20053;-78
2024/04/02 07:56:19;;;;;;;1.15;0.45;;;15.40;84.10;;;;;;5031955;28;20042;-78
2024/04/02 07:58:44;;;;;;;0.93;0.60;;;15.40;84.00;;;;;;4973242;28;20432;-78
2024/04/02 08:01:10;;;;;;;0.90;0.55;;;15.40;83.80;;;;;;5003758;28;20125;-78
2024/04/02 08:03:35;;;;;;;1.20;0.70;;;15.40;84.10;;;;;;5003131;28;20042;-78
2024/04/02 08:06:01;;;;;;;0.47;0.40;;;15.40;84.10;;;;;;5005194;28;20520;-78
2024/04/02 08:08:26;;;;;;;0.70;0.50;;;15.40;83.80;;;;;;5004728;28;20042;-78
2024/04/02 08:10:52;;;;;;;0.60;0.28;;;15.40;83.80;;;;;;5005282;28;20045;-78
2024/04/02 08:13:18;;;;;;;0.60;0.38;;;15.40;83.80;;;;;;5005624;28;20760;-78
2024/04/02 08:15:46;;;;;;;1.00;0.43;;;15.40;83.80;;;;;;5004698;28;20041;-78
2024/04/02 08:18:12;;;;;;;0.98;0.40;;;15.40;84.10;;;;;;5005192;28;20065;-78
2024/04/02 08:20:37;;;;;;;0.52;0.40;;;15.40;84.10;;;;;;5001197;28;20131;-78
2024/04/02 08:23:04;;;;;;;0.52;0.30;;;15.40;83.90;;;;;;5003224;28;20033;-78
2024/04/02 08:25:30;;;;;;;0.77;0.40;;;15.40;83.80;;;;;;5003954;28;20046;-78
2024/04/02 08:27:55;;;;;;;0.40;0.38;;;15.40;83.60;;;;;;5005481;28;20053;-78
2024/04/02 08:30:21;;;;;;;0.80;0.60;;;15.40;84.20;;;;;;5002442;28;20048;-78
2024/04/02 08:32:47;;;;;;;1.75;0.43;;;15.40;83.80;;;;;;5006199;28;20058;-78
2024/04/02 08:35:12;;;;;;;1.15;0.32;;;15.50;83.70;;;;;;4992807;28;20042;-78
2024/04/02 08:37:38;;;;;;;0.77;0.30;;;15.40;83.50;;;;;;4991137;28;20096;-78
2024/04/02 08:40:04;;;;;;;0.32;0.30;;;15.40;84.10;;;;;;5009382;28;20042;-78
2024/04/02 08:42:30;;;;;;;0.77;0.50;;;15.40;83.70;;;;;;5007272;28;20128;-78
2024/04/02 08:44:55;;;;;;;0.45;0.30;;;15.40;83.30;;;;;;5008466;28;20126;-78
2024/04/02 08:47:21;;;;;;;1.90;0.60;;;15.40;84.00;;;;;;4992770;28;20042;-78
2024/04/02 08:49:47;;;;;;;0.57;0.32;;;15.40;83.50;;;;;;5011649;28;20061;-78
2024/04/02 08:52:12;;;;;;;0.65;0.30;;;15.40;83.60;;;;;;4992568;28;20080;-78
2024/04/02 08:54:38;;;;;;;0.55;0.38;;;15.40;83.60;;;;;;5008266;28;20041;-78
2024/04/02 08:57:04;;;;;;;0.68;0.30;;;15.40;83.30;;;;;;5008762;28;20042;-78
2024/04/02 08:59:31;;;;;;;0.43;0.38;;;15.40;83.40;;;;;;4975661;28;20035;-78
2024/04/02 09:01:58;;;;;;;1.00;0.52;;;15.40;83.50;;;;;;4976390;28;20034;-78
2024/04/02 09:04:25;;;;;;;1.08;0.35;;;15.40;83.40;;;;;;5008082;28;20575;-78
2024/04/02 09:06:50;;;;;;;1.05;0.40;;;15.40;83.40;;;;;;4989781;28;20038;-78
2024/04/02 09:09:20;;;;;;;0.43;0.30;;;15.40;83.70;;;;;;5007529;28;20045;-78
2024/04/02 09:11:46;;;;;;;0.63;0.40;;;15.40;83.50;;;;;;5002895;28;20057;-78
2024/04/02 09:14:11;;;;;;;0.40;0.40;;;15.40;84.00;;;;;;4987869;28;20559;-78
2024/04/02 09:16:37;;;;;;;0.52;0.30;;;15.40;83.50;;;;;;5016360;28;20598;-78
2024/04/02 09:19:02;;;;;;;1.35;0.35;;;15.40;83.20;;;;;;5036048;28;20048;-78
2024/04/02 09:21:28;;;;;;;0.63;0.38;;;15.40;83.80;;;;;;5006777;28;20116;-78
2024/04/02 09:23:54;;;;;;;1.35;0.40;;;15.40;83.30;;;;;;5014292;28;20038;-78
2024/04/02 09:26:22;;;;;;;0.30;0.28;;;15.50;83.10;;;;;;5005766;28;20470;-78
2024/04/02 09:28:51;;;;;;;0.30;0.20;;;15.40;83.30;;;;;;5007676;28;20159;-78
2024/04/02 09:31:16;;;;;;;0.50;0.28;;;15.40;82.70;;;;;;5005541;28;20610;-78
2024/04/02 09:33:43;;;;;;;0.45;0.28;;;15.40;83.00;;;;;;4989945;28;20034;-78
2024/04/02 09:36:13;;;;;;;1.13;0.60;;;15.50;83.20;;;;;;4974619;28;20057;-78
2024/04/02 09:38:41;;;;;;;0.40;0.20;;;15.50;83.10;;;;;;4990435;28;20054;-77
2024/04/02 09:41:07;;;;;;;0.25;0.20;;;15.50;83.30;;;;;;5015148;28;20065;-77
2024/04/02 09:43:33;;;;;;;0.38;0.22;;;15.50;83.20;;;;;;5006280;28;20092;-78
2024/04/02 09:46:00;;;;;;;0.47;0.30;;;15.50;82.70;;;;;;5007808;28;20057;-78
2024/04/02 09:48:29;;;;;;;0.43;0.30;;;15.50;82.60;;;;;;5008200;28;20057;-78
2024/04/02 09:50:54;;;;;;;0.22;0.22;;;15.50;82.40;;;;;;5007196;28;20050;-78
2024/04/02 09:53:20;;;;;;;0.17;0.17;;;15.50;82.40;;;;;;4991683;28;20033;-78
2024/04/02 09:55:48;;;;;;;0.65;0.35;;;15.50;82.40;;;;;;4977120;28;20050;-78
2024/04/02 09:58:14;;;;;;;0.30;0.22;;;15.50;82.00;;;;;;5004991;28;20041;-78
2024/04/02 10:00:43;;;;;;;0.40;0.20;;;15.50;82.30;;;;;;5007311;28;20103;-78
2024/04/02 10:03:09;;;;;;;0.30;0.30;;;15.50;82.50;;;;;;4974791;28;20157;-78
2024/04/02 10:05:35;;;;;;;0.73;0.38;;;15.50;82.10;;;;;;4989651;28;20069;-78
2024/04/02 10:08:02;;;;;;;0.40;0.35;;;15.50;82.40;;;;;;4975493;28;20078;-78
2024/04/02 10:10:29;;;;;;;0.32;0.32;;;15.50;82.10;;;;;;5004678;28;20046;-78
2024/04/02 10:12:55;;;;;;;0.80;0.30;;;15.50;82.10;;;;;;5007409;28;20045;-78
2024/04/02 10:15:21;;;;;;;0.45;0.25;;;15.50;82.00;;;;;;5006974;28;20157;-78
2024/04/02 10:17:56;;;;;;;1.08;0.30;;;15.50;81.90;;;;;;5017316;28;20129;-79
2024/04/02 10:20:26;;;;;;;0.47;0.30;;;15.50;82.10;;;;;;5004409;28;20038;-79
2024/04/02 10:22:53;;;;;;;1.90;0.28;;;15.50;82.20;;;;;;4988784;28;20030;-78
2024/04/02 10:25:18;;;;;;;0.32;0.25;;;15.50;82.40;;;;;;5004932;28;20045;-79
2024/04/02 10:27:44;;;;;;;1.17;0.52;;;15.60;82.70;;;;;;5018232;28;20049;-79
2024/04/02 10:30:24;;;;;;;2.20;0.90;;;15.60;83.10;;;;;;5003679;28;20038;-78
2024/04/02 10:32:50;;;;;;;2.10;0.52;;;15.70;82.40;;;;;;4985941;28;20157;-78
2024/04/02 10:35:17;;;;;;;1.45;0.40;;;15.80;82.00;;;;;;5003306;28;20125;-77
2024/04/02 10:37:42;;;;;;;0.80;0.80;;;15.80;82.50;;;;;;5017959;28;20035;-75
2024/04/02 10:40:08;;;;;;;1.23;0.60;;;15.80;83.90;;;;;;5004576;28;20053;-76
2024/04/02 10:42:34;;;;;;;0.82;0.60;;;15.80;86.50;;;;;;5003609;28;20601;-75
2024/04/02 10:44:59;;;;;;;1.15;0.65;;;15.80;85.30;;;;;;5004159;28;20527;-76
2024/04/02 10:47:27;;;;;;;0.77;0.68;;;15.80;84.00;;;;;;5005494;28;20077;-77
2024/04/02 10:49:53;;;;;;;0.68;0.55;;;15.90;83.30;;;;;;4989134;28;20061;-78
2024/04/02 10:52:18;;;;;;;0.80;0.50;;;15.90;83.40;;;;;;5004377;28;20095;-77
2024/04/02 10:54:44;;;;;;;0.50;0.38;;;15.90;82.50;;;;;;4989338;28;20476;-76
2024/04/02 10:57:10;;;;;;;2.02;0.85;;;15.90;82.90;;;;;;4655610;28;10000597;-77
2024/04/02 10:59:36;;;;;;;0.77;0.45;;;15.90;83.80;;;;;;4969495;28;20121;-77
2024/04/02 11:02:20;;;;;;;0.90;0.80;;;15.80;83.70;;;;;;5001171;28;20124;-77
2024/04/02 11:04:46;;;;;;;;;;;15.90;86.30;;;;;;4997304;28;20538;-77
2024/04/02 11:07:12;;;;;;;1.83;0.50;;;15.70;84.30;;;;;;5003260;28;19921;-77
2024/04/02 11:09:39;;;;;;;0.73;0.40;;;15.70;83.90;;;;;;5001184;28;20392;-77
2024/04/02 11:12:08;;;;;;;0.90;0.57;;;15.70;83.90;;;;;;4982670;28;20751;-77
2024/04/02 11:14:36;;;;;;;0.75;0.40;;;15.70;83.80;;;;;;5002107;28;20052;-77
2024/04/02 11:17:01;;;;;;;1.23;0.40;;;15.70;83.20;;;;;;4985193;28;20049;-77
2024/04/02 11:19:27;;;;;;;1.10;0.38;;;15.70;83.70;;;;;;5000091;28;20045;-76
2024/04/02 11:27:26;;;;;;;0.75;0.30;;;15.70;82.70;;;;;;4988845;28;20048;-77
2024/04/02 11:29:54;;;;;;;0.63;0.40;;;15.70;82.30;;;;;;5001630;28;20048;-77
2024/04/02 11:32:20;;;;;;;0.70;0.43;;;15.70;82.30;;;;;;5000858;28;20057;-76
2024/04/02 11:35:07;;;;;;;0.68;0.40;;;15.70;82.30;;;;;;5028824;28;20049;-76
2024/04/02 11:37:33;;;;;;;0.40;0.20;;;15.70;81.90;;;;;;5002121;28;20052;-77
2024/04/02 11:39:58;;;;;;;0.73;0.20;;;15.70;81.80;;;;;;4983250;28;20038;-77
2024/04/02 11:42:24;;;;;;;0.50;0.40;;;15.70;82.10;;;;;;4984882;28;20038;-77
2024/04/02 11:44:51;;;;;;;0.40;0.30;;;15.70;81.70;;;;;;4997855;28;20046;-77
2024/04/02 11:47:17;;;;;;;0.65;0.45;;;15.70;82.80;;;;;;4995865;28;20041;-77
2024/04/02 11:49:43;;;;;;;0.40;0.20;;;15.70;81.80;;;;;;4997809;28;20396;-77
2024/04/02 11:52:08;;;;;;;0.70;0.50;;;15.70;81.90;;;;;;5003880;28;20599;-82
2024/04/02 11:54:34;;;;;;;0.40;0.30;;;15.90;81.80;;;;;;4972356;28;20451;-77
2024/04/02 12:02:29;;;;;;;0.50;0.43;;;15.90;80.70;;;;;;4991490;28;20056;-77
2024/04/02 12:04:55;;;;;;;0.35;0.22;;;15.90;80.60;;;;;;5004364;28;20034;-77
2024/04/02 12:07:21;;;;;;;1.88;0.40;;;15.80;80.90;;;;;;5005223;28;20068;-77
2024/04/02 12:09:55;;;;;;;0.40;0.28;;;15.90;80.50;;;;;;5016655;28;20046;-78
2024/04/02 12:12:21;;;;;;;0.20;0.20;;;15.90;80.50;;;;;;5006003;28;20538;-77
2024/04/02 12:14:46;;;;;;;0.43;0.30;;;15.90;80.70;;;;;;5036918;28;20128;-77
2024/04/02 12:17:12;;;;;;;0.57;0.30;;;15.90;80.60;;;;;;5006019;28;20126;-77
2024/04/02 12:19:38;;;;;;;0.30;0.22;;;15.90;80.70;;;;;;4972756;28;20092;-77
2024/04/02 12:22:03;;;;;;;0.30;0.20;;;15.90;81.40;;;;;;4983448;28;20140;-77
2024/04/02 12:24:29;;;;;;;0.98;0.30;;;15.90;80.60;;;;;;5005629;28;20042;-77
2024/04/02 12:26:54;;;;;;;0.65;0.30;;;15.90;80.70;;;;;;4986786;28;20411;-77
2024/04/02 12:29:20;;;;;;;0.80;0.32;;;15.90;80.40;;;;;;4988934;28;20042;-77
2024/04/02 12:31:46;;;;;;;0.35;0.32;;;15.90;80.60;;;;;;4988079;28;20415;-78
2024/04/02 12:34:11;;;;;;;1.90;0.38;;;15.90;80.30;;;;;;5004245;28;20050;-77
2024/04/02 12:36:38;;;;;;;0.52;0.30;;;15.90;81.30;;;;;;5031988;28;20479;-77
2024/04/02 12:39:03;;;;;;;0.93;0.30;;;15.90;81.10;;;;;;5028160;28;20042;-77
2024/04/02 12:41:29;;;;;;;0.40;0.20;;;15.80;80.90;;;;;;4988842;28;20092;-77
2024/04/02 12:43:56;;;;;;;0.60;0.40;;;15.90;81.80;;;;;;4984882;28;20073;-78
2024/04/02 12:46:21;;;;;;;0.20;0.15;;;15.90;81.00;;;;;;5003828;28;20042;-77
2024/04/02 12:48:47;;;;;;;1.10;0.28;;;15.90;80.90;;;;;;5004359;28;21154;-77
2024/04/02 12:51:13;;;;;;;0.70;0.40;;;15.90;81.00;;;;;;5003961;28;20092;-77
2024/04/02 12:53:38;;;;;;;0.25;0.20;;;16.00;80.50;;;;;;5004623;28;20042;-77